sensor_id;sensor_type;location;lat;lon;timestamp;pressure;altitude;pressure_sealevel;temperature;humidity
5996;BME280;3026;53.612;7.278;2023-11-21T00:00:45;100811.34;;;10.39;100.00
5996;BME280;3026;53.612;7.278;2023-11-21T00:03:19;100810.31;;;10.40;100.00
5996;BME280;3026;53.612;7.278;2023-11-21T00:05:49;100813.03;;;10.40;100.00
5996;BME280;3026;53.612;7.278;2023-11-21T00:08:16;100813.75;;;10.42;100.00
5996;BME280;3026;53.612;7.278;2023-11-21T00:10:44;100815.63;;;10.42;100.00
5996;BME280;3026;53.612;7.278;2023-11-21T00:13:11;100818.16;;;10.43;100.00
5996;BME280;3026;53.612;7.278;2023-11-21T00:15:39;100823.63;;;10.43;100.00
5996;BME280;3026;53.612;7.278;2023-11-21T00:18:06;100829.06;;;10.43;100.00
5996;BME280;3026;53.612;7.278;2023-11-21T00:20:36;100824.47;;;10.44;100.00
5996;BME280;3026;53.612;7.278;2023-11-21T00:23:03;100828.03;;;10.44;100.00
5996;BME280;3026;53.612;7.278;2023-11-21T00:25:30;100825.50;;;10.43;100.00
5996;BME280;3026;53.612;7.278;2023-11-21T00:27:57;100823.63;;;10.43;100.00
5996;BME280;3026;53.612;7.278;2023-11-21T00:30:26;100827.38;;;10.42;100.00
5996;BME280;3026;53.612;7.278;2023-11-21T00:32:53;100826.34;;;10.43;100.00
5996;BME280;3026;53.612;7.278;2023-11-21T00:35:20;100838.28;;;10.42;100.00
5996;BME280;3026;53.612;7.278;2023-11-21T00:37:50;100833.66;;;10.43;100.00
5996;BME280;3026;53.612;7.278;2023-11-21T00:40:17;100834.53;;;10.43;100.00
5996;BME280;3026;53.612;7.278;2023-11-21T00:42:52;100842.69;;;10.43;100.00
5996;BME280;3026;53.612;7.278;2023-11-21T00:45:21;100841.66;;;10.44;100.00
5996;BME280;3026;53.612;7.278;2023-11-21T00:47:52;100847.13;;;10.44;100.00
5996;BME280;3026;53.612;7.278;2023-11-21T00:50:20;100845.44;;;10.43;100.00
5996;BME280;3026;53.612;7.278;2023-11-21T00:52:50;100845.75;;;10.40;100.00
5996;BME280;3026;53.612;7.278;2023-11-21T00:55:17;100854.94;;;10.39;100.00
5996;BME280;3026;53.612;7.278;2023-11-21T00:57:44;100869.25;;;10.41;100.00
5996;BME280;3026;53.612;7.278;2023-11-21T01:00:12;100869.25;;;10.41;100.00
5996;BME280;3026;53.612;7.278;2023-11-21T01:02:43;100870.28;;;10.40;100.00
5996;BME280;3026;53.612;7.278;2023-11-21T01:05:10;100866.53;;;10.41;100.00
5996;BME280;3026;53.612;7.278;2023-11-21T01:07:37;100867.56;;;10.40;100.00
5996;BME280;3026;53.612;7.278;2023-11-21T01:10:08;100889.03;;;10.43;100.00
5996;BME280;3026;53.612;7.278;2023-11-21T01:12:36;100885.59;;;10.41;100.00
5996;BME280;3026;53.612;7.278;2023-11-21T01:15:05;100889.03;;;10.43;100.00
5996;BME280;3026;53.612;7.278;2023-11-21T01:17:33;100893.78;;;10.41;100.00
5996;BME280;3026;53.612;7.278;2023-11-21T01:20:01;100896.50;;;10.41;100.00
5996;BME280;3026;53.612;7.278;2023-11-21T01:22:28;100901.97;;;10.41;100.00
5996;BME280;3026;53.612;7.278;2023-11-21T01:24:55;100904.69;;;10.41;100.00
5996;BME280;3026;53.612;7.278;2023-11-21T01:27:24;100909.16;;;10.42;100.00
5996;BME280;3026;53.612;7.278;2023-11-21T01:29:53;100913.75;;;10.42;100.00
5996;BME280;3026;53.612;7.278;2023-11-21T01:32:20;100916.63;;;10.40;100.00
5996;BME280;3026;53.612;7.278;2023-11-21T01:34:50;100929.56;;;10.38;100.00
5996;BME280;3026;53.612;7.278;2023-11-21T01:37:17;100934.16;;;10.38;100.00
5996;BME280;3026;53.612;7.278;2023-11-21T01:39:45;100937.06;;;10.36;100.00
5996;BME280;3026;53.612;7.278;2023-11-21T01:42:12;100946.94;;;10.37;100.00
5996;BME280;3026;53.612;7.278;2023-11-21T01:44:41;100951.72;;;10.35;100.00
5996;BME280;3026;53.612;7.278;2023-11-21T01:47:09;100951.88;;;10.34;100.00
5996;BME280;3026;53.612;7.278;2023-11-21T01:49:37;100961.25;;;10.31;100.00
5996;BME280;3026;53.612;7.278;2023-11-21T01:52:06;100960.41;;;10.31;100.00
5996;BME280;3026;53.612;7.278;2023-11-21T01:54:34;100961.56;;;10.28;100.00
5996;BME280;3026;53.612;7.278;2023-11-21T01:57:04;100963.63;;;10.26;100.00
5996;BME280;3026;53.612;7.278;2023-11-21T01:59:34;100967.03;;;10.28;100.00
5996;BME280;3026;53.612;7.278;2023-11-21T02:02:04;100970.78;;;10.27;100.00
5996;BME280;3026;53.612;7.278;2023-11-21T02:04:33;100976.22;;;10.27;100.00
5996;BME280;3026;53.612;7.278;2023-11-21T02:07:00;100970.78;;;10.27;100.00
5996;BME280;3026;53.612;7.278;2023-11-21T02:09:28;100977.25;;;10.26;100.00
5996;BME280;3026;53.612;7.278;2023-11-21T02:11:56;100974.53;;;10.26;100.00
5996;BME280;3026;53.612;7.278;2023-11-21T02:14:25;100974.88;;;10.23;100.00
5996;BME280;3026;53.612;7.278;2023-11-21T02:16:54;100980.31;;;10.23;100.00
5996;BME280;3026;53.612;7.278;2023-11-21T02:19:25;100985.75;;;10.23;100.00
5996;BME280;3026;53.612;7.278;2023-11-21T02:21:52;100992.25;;;10.22;100.00
5996;BME280;3026;53.612;7.278;2023-11-21T02:24:23;100994.97;;;10.22;100.00
5996;BME280;3026;53.612;7.278;2023-11-21T02:26:51;101005.88;;;10.22;100.00
5996;BME280;3026;53.612;7.278;2023-11-21T02:29:18;101008.59;;;10.22;100.00
5996;BME280;3026;53.612;7.278;2023-11-21T02:31:48;101016.75;;;10.22;100.00
5996;BME280;3026;53.612;7.278;2023-11-21T02:34:15;101015.03;;;10.21;100.00
5996;BME280;3026;53.612;7.278;2023-11-21T02:36:42;101021.50;;;10.20;100.00
5996;BME280;3026;53.612;7.278;2023-11-21T02:39:10;101029.69;;;10.20;100.00
5996;BME280;3026;53.612;7.278;2023-11-21T02:41:39;101035.44;;;10.17;100.00
5996;BME280;3026;53.612;7.278;2023-11-21T02:44:06;101031.50;;;10.11;100.00
5996;BME280;3026;53.612;7.278;2023-11-21T02:46:33;101037.78;;;10.04;100.00
5996;BME280;3026;53.612;7.278;2023-11-21T02:49:01;101044.56;;;10.00;100.00
5996;BME280;3026;53.612;7.278;2023-11-21T02:51:28;101044.19;;;9.94;100.00
5996;BME280;3026;53.612;7.278;2023-11-21T02:53:55;101049.28;;;9.89;100.00
5996;BME280;3026;53.612;7.278;2023-11-21T02:56:27;101045.19;;;9.85;100.00
5996;BME280;3026;53.612;7.278;2023-11-21T02:58:59;101048.22;;;9.82;100.00
5996;BME280;3026;53.612;7.278;2023-11-21T03:01:26;101050.25;;;9.80;100.00
5996;BME280;3026;53.612;7.278;2023-11-21T03:03:55;101056.91;;;9.78;100.00
5996;BME280;3026;53.612;7.278;2023-11-21T03:06:22;101058.94;;;9.76;100.00
5996;BME280;3026;53.612;7.278;2023-11-21T03:08:50;101063.81;;;9.72;100.00
5996;BME280;3026;53.612;7.278;2023-11-21T03:11:17;101067.91;;;9.68;100.00
5996;BME280;3026;53.612;7.278;2023-11-21T03:13:44;101072.66;;;9.66;100.00
5996;BME280;3026;53.612;7.278;2023-11-21T03:16:15;101071.97;;;9.64;100.00
5996;BME280;3026;53.612;7.278;2023-11-21T03:18:43;101070.25;;;9.63;100.00
5996;BME280;3026;53.612;7.278;2023-11-21T03:21:10;101072.31;;;9.61;100.00
5996;BME280;3026;53.612;7.278;2023-11-21T03:23:37;101075.31;;;9.58;100.00
5996;BME280;3026;53.612;7.278;2023-11-21T03:26:04;101078.22;;;9.56;100.00
5996;BME280;3026;53.612;7.278;2023-11-21T03:28:36;101082.44;;;9.51;100.00
5996;BME280;3026;53.612;7.278;2023-11-21T03:31:03;101091.91;;;9.47;100.00
5996;BME280;3026;53.612;7.278;2023-11-21T03:33:34;101093.09;;;9.44;100.00
5996;BME280;3026;53.612;7.278;2023-11-21T03:36:01;101099.72;;;9.42;100.00
5996;BME280;3026;53.612;7.278;2023-11-21T03:38:29;101095.28;;;9.41;100.00
5996;BME280;3026;53.612;7.278;2023-11-21T03:40:56;101096.31;;;9.40;100.00
5996;BME280;3026;53.612;7.278;2023-11-21T03:43:24;101105.78;;;9.35;100.00
5996;BME280;3026;53.612;7.278;2023-11-21T03:45:51;101114.97;;;9.34;100.00
5996;BME280;3026;53.612;7.278;2023-11-21T03:48:18;101109.84;;;9.31;100.00
5996;BME280;3026;53.612;7.278;2023-11-21T03:50:47;101110.16;;;9.28;100.00
5996;BME280;3026;53.612;7.278;2023-11-21T03:53:14;101110.47;;;9.25;100.00
5996;BME280;3026;53.612;7.278;2023-11-21T03:55:42;101114.19;;;9.24;100.00
5996;BME280;3026;53.612;7.278;2023-11-21T03:58:09;101117.94;;;9.23;100.00
5996;BME280;3026;53.612;7.278;2023-11-21T04:00:36;101118.25;;;9.20;100.00
5996;BME280;3026;53.612;7.278;2023-11-21T04:03:03;101124.00;;;9.17;100.00
5996;BME280;3026;53.612;7.278;2023-11-21T04:05:30;101136.94;;;9.15;100.00
5996;BME280;3026;53.612;7.278;2023-11-21T04:08:00;101131.50;;;9.15;100.00
5996;BME280;3026;53.612;7.278;2023-11-21T04:10:28;101135.19;;;9.14;100.00
5996;BME280;3026;53.612;7.278;2023-11-21T04:12:56;101142.66;;;9.12;100.00
5996;BME280;3026;53.612;7.278;2023-11-21T04:15:22;101146.38;;;9.11;100.00
5996;BME280;3026;53.612;7.278;2023-11-21T04:17:50;101161.00;;;9.10;100.00
5996;BME280;3026;53.612;7.278;2023-11-21T04:20:16;101154.88;;;9.08;100.00
5996;BME280;3026;53.612;7.278;2023-11-21T04:22:44;101160.63;;;9.05;100.00
5996;BME280;3026;53.612;7.278;2023-11-21T04:25:14;101164.38;;;9.04;100.00
5996;BME280;3026;53.612;7.278;2023-11-21T04:27:41;101169.06;;;9.02;100.00
5996;BME280;3026;53.612;7.278;2023-11-21T04:30:09;101166.50;;;9.00;100.00
5996;BME280;3026;53.612;7.278;2023-11-21T04:32:37;101181.97;;;9.00;100.00
5996;BME280;3026;53.612;7.278;2023-11-21T04:35:05;101180.28;;;8.99;100.00
5996;BME280;3026;53.612;7.278;2023-11-21T04:37:34;101176.84;;;8.97;100.00
5996;BME280;3026;53.612;7.278;2023-11-21T04:40:01;101191.47;;;8.96;100.00
5996;BME280;3026;53.612;7.278;2023-11-21T04:42:34;101190.94;;;8.92;100.00
5996;BME280;3026;53.612;7.278;2023-11-21T04:45:02;101196.81;;;8.88;100.00
5996;BME280;3026;53.612;7.278;2023-11-21T04:47:33;101201.56;;;8.86;100.00
5996;BME280;3026;53.612;7.278;2023-11-21T04:50:00;101212.44;;;8.86;100.00
5996;BME280;3026;53.612;7.278;2023-11-21T04:52:27;101212.44;;;8.86;100.00
5996;BME280;3026;53.612;7.278;2023-11-21T04:54:54;101212.59;;;8.84;100.00
5996;BME280;3026;53.612;7.278;2023-11-21T04:57:24;101217.16;;;8.84;100.00
5996;BME280;3026;53.612;7.278;2023-11-21T04:59:52;101227.03;;;8.85;100.00
5996;BME280;3026;53.612;7.278;2023-11-21T05:02:20;101225.31;;;8.84;100.00
5996;BME280;3026;53.612;7.278;2023-11-21T05:04:47;101230.75;;;8.84;100.00
5996;BME280;3026;53.612;7.278;2023-11-21T05:07:14;101239.94;;;8.83;100.00
5996;BME280;3026;53.612;7.278;2023-11-21T05:09:42;101241.94;;;8.81;100.00
5996;BME280;3026;53.612;7.278;2023-11-21T05:12:14;101243.94;;;8.78;100.00
5996;BME280;3026;53.612;7.278;2023-11-21T05:14:42;101254.13;;;8.76;100.00
5996;BME280;3026;53.612;7.278;2023-11-21T05:17:11;101259.72;;;8.75;100.00
5996;BME280;3026;53.612;7.278;2023-11-21T05:19:38;101258.84;;;8.74;100.00
5996;BME280;3026;53.612;7.278;2023-11-21T05:22:06;101270.59;;;8.75;100.00
5996;BME280;3026;53.612;7.278;2023-11-21T05:24:34;101276.88;;;8.75;100.00
5996;BME280;3026;53.612;7.278;2023-11-21T05:27:04;101277.88;;;8.74;100.00
5996;BME280;3026;53.612;7.278;2023-11-21T05:29:31;101279.91;;;8.72;100.00
5996;BME280;3026;53.612;7.278;2023-11-21T05:31:58;101285.19;;;8.74;100.00
5996;BME280;3026;53.612;7.278;2023-11-21T05:34:27;101294.19;;;8.74;100.00
5996;BME280;3026;53.612;7.278;2023-11-21T05:36:54;101301.50;;;8.74;100.00
5996;BME280;3026;53.612;7.278;2023-11-21T05:39:23;101304.38;;;8.72;100.00
5996;BME280;3026;53.612;7.278;2023-11-21T05:41:51;101304.38;;;8.72;100.00
5996;BME280;3026;53.612;7.278;2023-11-21T05:44:18;101319.84;;;8.72;100.00
5996;BME280;3026;53.612;7.278;2023-11-21T05:46:45;101321.00;;;8.69;100.00
5996;BME280;3026;53.612;7.278;2023-11-21T05:49:12;101333.59;;;8.70;100.00
5996;BME280;3026;53.612;7.278;2023-11-21T05:51:41;101329.16;;;8.69;100.00
5996;BME280;3026;53.612;7.278;2023-11-21T05:54:08;101336.44;;;8.69;100.00
5996;BME280;3026;53.612;7.278;2023-11-21T05:56:35;101327.44;;;8.68;100.00
5996;BME280;3026;53.612;7.278;2023-11-21T05:59:03;101333.84;;;8.67;100.00
5996;BME280;3026;53.612;7.278;2023-11-21T06:01:32;101337.56;;;8.66;100.00
5996;BME280;3026;53.612;7.278;2023-11-21T06:04:01;101341.31;;;8.65;100.00
5996;BME280;3026;53.612;7.278;2023-11-21T06:06:29;101357.63;;;8.65;100.00
5996;BME280;3026;53.612;7.278;2023-11-21T06:08:59;101358.63;;;8.64;100.00
5996;BME280;3026;53.612;7.278;2023-11-21T06:11:26;101364.06;;;8.64;100.00
5996;BME280;3026;53.612;7.278;2023-11-21T06:13:53;101365.94;;;8.64;100.00
5996;BME280;3026;53.612;7.278;2023-11-21T06:16:20;101375.94;;;8.63;100.00
5996;BME280;3026;53.612;7.278;2023-11-21T06:18:48;101367.63;;;8.65;100.00
5996;BME280;3026;53.612;7.278;2023-11-21T06:21:15;101381.38;;;8.63;100.00
5996;BME280;3026;53.612;7.278;2023-11-21T06:23:43;101377.25;;;8.59;100.00
5996;BME280;3026;53.612;7.278;2023-11-21T06:26:12;101373.69;;;8.59;100.00
5996;BME280;3026;53.612;7.278;2023-11-21T06:28:40;101391.09;;;8.56;100.00
5996;BME280;3026;53.612;7.278;2023-11-21T06:31:07;101389.28;;;8.57;100.00
5996;BME280;3026;53.612;7.278;2023-11-21T06:33:34;101393.13;;;8.54;100.00
5996;BME280;3026;53.612;7.278;2023-11-21T06:36:01;101395.13;;;8.52;100.00
5996;BME280;3026;53.612;7.278;2023-11-21T06:38:29;101388.13;;;8.50;100.00
5996;BME280;3026;53.612;7.278;2023-11-21T06:40:58;101387.44;;;8.47;100.00
5996;BME280;3026;53.612;7.278;2023-11-21T06:43:29;101394.72;;;8.47;100.00
5996;BME280;3026;53.612;7.278;2023-11-21T06:45:56;101401.16;;;8.46;100.00
5996;BME280;3026;53.612;7.278;2023-11-21T06:48:23;101410.28;;;8.45;100.00
5996;BME280;3026;53.612;7.278;2023-11-21T06:50:50;101414.31;;;8.41;100.00
5996;BME280;3026;53.612;7.278;2023-11-21T06:53:18;101421.75;;;8.39;100.00
5996;BME280;3026;53.612;7.278;2023-11-21T06:55:45;101440.22;;;8.35;100.00
5996;BME280;3026;53.612;7.278;2023-11-21T06:58:13;101443.16;;;8.32;100.00
5996;BME280;3026;53.612;7.278;2023-11-21T07:00:42;101444.31;;;8.30;100.00
5996;BME280;3026;53.612;7.278;2023-11-21T07:03:14;101443.31;;;8.31;100.00
5996;BME280;3026;53.612;7.278;2023-11-21T07:05:41;101462.63;;;8.28;100.00
5996;BME280;3026;53.612;7.278;2023-11-21T07:08:09;101469.50;;;8.22;100.00
5996;BME280;3026;53.612;7.278;2023-11-21T07:10:36;101468.91;;;8.18;100.00
5996;BME280;3026;53.612;7.278;2023-11-21T07:13:04;101488.38;;;8.14;100.00
5996;BME280;3026;53.612;7.278;2023-11-21T07:15:32;101485.78;;;8.12;100.00
5996;BME280;3026;53.612;7.278;2023-11-21T07:18:01;101493.94;;;8.12;100.00
5996;BME280;3026;53.612;7.278;2023-11-21T07:20:28;101500.38;;;8.11;100.00
5996;BME280;3026;53.612;7.278;2023-11-21T07:22:55;101500.38;;;8.11;100.00
5996;BME280;3026;53.612;7.278;2023-11-21T07:25:23;101507.78;;;8.09;100.00
5996;BME280;3026;53.612;7.278;2023-11-21T07:27:50;101511.78;;;8.05;100.00
5996;BME280;3026;53.612;7.278;2023-11-21T07:30:18;101510.06;;;8.04;100.00
5996;BME280;3026;53.612;7.278;2023-11-21T07:32:45;101513.78;;;8.03;100.00
5996;BME280;3026;53.612;7.278;2023-11-21T07:35:15;101534.66;;;8.03;100.00
5996;BME280;3026;53.612;7.278;2023-11-21T07:37:43;101526.66;;;8.01;100.00
5996;BME280;3026;53.612;7.278;2023-11-21T07:40:10;101534.81;;;8.01;100.00
5996;BME280;3026;53.612;7.278;2023-11-21T07:42:39;101536.81;;;7.99;100.00
5996;BME280;3026;53.612;7.278;2023-11-21T07:45:08;101546.91;;;7.97;100.00
5996;BME280;3026;53.612;7.278;2023-11-21T07:47:35;101548.94;;;7.95;100.00
5996;BME280;3026;53.612;7.278;2023-11-21T07:50:05;101561.78;;;7.93;100.00
5996;BME280;3026;53.612;7.278;2023-11-21T07:52:34;101565.50;;;7.92;100.00
5996;BME280;3026;53.612;7.278;2023-11-21T07:55:02;101575.78;;;7.88;100.00
5996;BME280;3026;53.612;7.278;2023-11-21T07:57:29;101576.66;;;7.89;100.00
5996;BME280;3026;53.612;7.278;2023-11-21T07:59:56;101586.50;;;7.90;100.00
5996;BME280;3026;53.612;7.278;2023-11-21T08:02:24;101586.75;;;7.87;100.00
5996;BME280;3026;53.612;7.278;2023-11-21T08:04:51;101598.63;;;7.86;100.00
5996;BME280;3026;53.612;7.278;2023-11-21T08:07:18;101598.63;;;7.86;100.00
5996;BME280;3026;53.612;7.278;2023-11-21T08:09:47;101607.75;;;7.85;100.00
5996;BME280;3026;53.612;7.278;2023-11-21T08:12:15;101620.34;;;7.86;100.00
5996;BME280;3026;53.612;7.278;2023-11-21T08:14:43;101622.19;;;7.85;100.00
5996;BME280;3026;53.612;7.278;2023-11-21T08:17:10;101631.47;;;7.83;100.00
5996;BME280;3026;53.612;7.278;2023-11-21T08:19:39;101634.06;;;7.84;100.00
5996;BME280;3026;53.612;7.278;2023-11-21T08:22:06;101645.78;;;7.85;100.00
5996;BME280;3026;53.612;7.278;2023-11-21T08:24:34;101644.06;;;7.84;100.00
5996;BME280;3026;53.612;7.278;2023-11-21T08:27:04;101644.91;;;7.84;100.00
5996;BME280;3026;53.612;7.278;2023-11-21T08:29:32;101649.50;;;7.84;100.00
5996;BME280;3026;53.612;7.278;2023-11-21T08:32:00;101653.22;;;7.83;100.00
5996;BME280;3026;53.612;7.278;2023-11-21T08:34:27;101657.78;;;7.82;100.00
5996;BME280;3026;53.612;7.278;2023-11-21T08:36:54;101653.22;;;7.83;100.00
5996;BME280;3026;53.612;7.278;2023-11-21T08:39:22;101658.63;;;7.83;100.00
5996;BME280;3026;53.612;7.278;2023-11-21T08:41:50;101662.34;;;7.82;100.00
5996;BME280;3026;53.612;7.278;2023-11-21T08:44:19;101664.94;;;7.83;100.00
5996;BME280;3026;53.612;7.278;2023-11-21T08:46:46;101671.22;;;7.84;100.00
5996;BME280;3026;53.612;7.278;2023-11-21T08:49:13;101681.81;;;7.87;100.00
5996;BME280;3026;53.612;7.278;2023-11-21T08:51:41;101684.50;;;7.87;100.00
5996;BME280;3026;53.612;7.278;2023-11-21T08:54:08;101685.13;;;7.90;100.00
5996;BME280;3026;53.612;7.278;2023-11-21T08:56:35;101680.41;;;7.93;100.00
5996;BME280;3026;53.612;7.278;2023-11-21T08:59:03;101688.44;;;7.94;100.00
5996;BME280;3026;53.612;7.278;2023-11-21T09:01:31;101701.88;;;7.96;100.00
5996;BME280;3026;53.612;7.278;2023-11-21T09:03:59;101706.16;;;7.98;100.00
5996;BME280;3026;53.612;7.278;2023-11-21T09:06:26;101716.78;;;8.01;100.00
5996;BME280;3026;53.612;7.278;2023-11-21T09:08:53;101718.34;;;8.04;100.00
5996;BME280;3026;53.612;7.278;2023-11-21T09:11:20;101720.94;;;8.05;100.00
5996;BME280;3026;53.612;7.278;2023-11-21T09:13:47;101727.09;;;8.07;100.00
5996;BME280;3026;53.612;7.278;2023-11-21T09:16:16;101725.84;;;8.11;100.00
5996;BME280;3026;53.612;7.278;2023-11-21T09:18:46;101732.00;;;8.13;100.00
5996;BME280;3026;53.612;7.278;2023-11-21T09:21:13;101730.72;;;8.17;100.00
5996;BME280;3026;53.612;7.278;2023-11-21T09:23:40;101740.31;;;8.22;100.00
5996;BME280;3026;53.612;7.278;2023-11-21T09:26:07;101743.50;;;8.27;100.00
5996;BME280;3026;53.612;7.278;2023-11-21T09:28:35;101752.38;;;8.29;100.00
5996;BME280;3026;53.612;7.278;2023-11-21T09:31:04;101757.53;;;8.32;100.00
5996;BME280;3026;53.612;7.278;2023-11-21T09:33:35;101752.09;;;8.32;100.00
5996;BME280;3026;53.612;7.278;2023-11-21T09:36:11;101759.25;;;8.33;100.00
5996;BME280;3026;53.612;7.278;2023-11-21T09:38:40;101768.38;;;8.32;100.00
5996;BME280;3026;53.612;7.278;2023-11-21T09:41:14;101770.91;;;8.35;100.00
5996;BME280;3026;53.612;7.278;2023-11-21T09:43:46;101776.78;;;8.40;100.00
5996;BME280;3026;53.612;7.278;2023-11-21T09:46:15;101784.63;;;8.43;100.00
5996;BME280;3026;53.612;7.278;2023-11-21T09:48:50;101783.66;;;8.44;100.00
5996;BME280;3026;53.612;7.278;2023-11-21T09:51:22;101794.28;;;8.47;100.00
5996;BME280;3026;53.612;7.278;2023-11-21T09:53:57;101790.78;;;8.45;100.00
5996;BME280;3026;53.612;7.278;2023-11-21T09:56:27;101792.78;;;8.43;100.00
5996;BME280;3026;53.612;7.278;2023-11-21T09:58:55;101794.78;;;8.41;100.00
5996;BME280;3026;53.612;7.278;2023-11-21T10:01:25;101796.50;;;8.42;100.00
5996;BME280;3026;53.612;7.278;2023-11-21T10:03:53;101800.50;;;8.38;100.00
5996;BME280;3026;53.612;7.278;2023-11-21T10:06:24;101801.66;;;8.35;100.00
5996;BME280;3026;53.612;7.278;2023-11-21T10:08:52;101804.22;;;8.37;100.00
5996;BME280;3026;53.612;7.278;2023-11-21T10:11:24;101805.09;;;8.37;100.00
5996;BME280;3026;53.612;7.278;2023-11-21T10:13:53;101812.09;;;8.40;100.00
5996;BME280;3026;53.612;7.278;2023-11-21T10:16:24;101815.09;;;8.37;100.00
5996;BME280;3026;53.612;7.278;2023-11-21T10:18:53;101820.53;;;8.37;100.00
5996;BME280;3026;53.612;7.278;2023-11-21T10:21:24;101827.69;;;8.38;100.00
5996;BME280;3026;53.612;7.278;2023-11-21T10:23:53;101831.13;;;8.40;100.00
5996;BME280;3026;53.612;7.278;2023-11-21T10:26:22;101840.00;;;8.42;100.00
5996;BME280;3026;53.612;7.278;2023-11-21T10:28:56;101846.91;;;8.46;100.00
5996;BME280;3026;53.612;7.278;2023-11-21T10:31:26;101846.63;;;8.49;100.00
5996;BME280;3026;53.612;7.278;2023-11-21T10:33:53;101852.06;;;8.49;100.00
5996;BME280;3026;53.612;7.278;2023-11-21T10:36:37;101852.94;;;8.50;100.00
5996;BME280;3026;53.612;7.278;2023-11-21T10:39:04;101853.78;;;8.50;100.00
5996;BME280;3026;53.612;7.278;2023-11-21T10:41:32;101853.78;;;8.50;100.00
5996;BME280;3026;53.612;7.278;2023-11-21T10:44:00;101855.50;;;8.51;100.00
5996;BME280;3026;53.612;7.278;2023-11-21T10:46:29;101854.50;;;8.52;100.00
5996;BME280;3026;53.612;7.278;2023-11-21T10:48:57;101862.38;;;8.55;100.00
5996;BME280;3026;53.612;7.278;2023-11-21T10:51:25;101860.66;;;8.54;100.00
5996;BME280;3026;53.612;7.278;2023-11-21T10:53:54;101867.81;;;8.55;100.00
5996;BME280;3026;53.612;7.278;2023-11-21T10:56:23;101856.94;;;8.55;100.00
5996;BME280;3026;53.612;7.278;2023-11-21T10:58:50;101865.09;;;8.55;100.00
5996;BME280;3026;53.612;7.278;2023-11-21T11:01:19;101869.53;;;8.56;100.00
5996;BME280;3026;53.612;7.278;2023-11-21T11:03:47;101869.53;;;8.56;100.00
5996;BME280;3026;53.612;7.278;2023-11-21T11:06:16;101868.09;;;8.52;100.00
5996;BME280;3026;53.612;7.278;2023-11-21T11:08:44;101870.97;;;8.51;100.00
5996;BME280;3026;53.612;7.278;2023-11-21T11:11:12;101875.53;;;8.50;100.00
5996;BME280;3026;53.612;7.278;2023-11-21T11:13:43;101876.53;;;8.49;100.00
5996;BME280;3026;53.612;7.278;2023-11-21T11:16:11;101873.09;;;8.47;100.00
5996;BME280;3026;53.612;7.278;2023-11-21T11:18:42;101889.53;;;8.45;100.00
5996;BME280;3026;53.612;7.278;2023-11-21T11:21:19;101891.66;;;8.42;100.00
5996;BME280;3026;53.612;7.278;2023-11-21T11:24:01;101887.47;;;8.38;100.00
5996;BME280;3026;53.612;7.278;2023-11-21T11:26:44;101886.00;;;8.34;100.00
5996;BME280;3026;53.612;7.278;2023-11-21T11:29:18;101895.13;;;8.33;100.00
5996;BME280;3026;53.612;7.278;2023-11-21T11:31:58;101894.16;;;8.34;100.00
5996;BME280;3026;53.612;7.278;2023-11-21T11:34:32;101899.47;;;8.35;100.00
5996;BME280;3026;53.612;7.278;2023-11-21T11:37:01;101905.78;;;8.36;100.00
5996;BME280;3026;53.612;7.278;2023-11-21T11:39:30;101902.78;;;8.39;100.00
5996;BME280;3026;53.612;7.278;2023-11-21T11:42:02;101907.22;;;8.40;100.00
5996;BME280;3026;53.612;7.278;2023-11-21T11:44:50;101923.41;;;8.41;100.00
5996;BME280;3026;53.612;7.278;2023-11-21T11:47:28;101903.13;;;8.45;100.00
5996;BME280;3026;53.612;7.278;2023-11-21T11:50:01;101916.59;;;8.47;100.00
5996;BME280;3026;53.612;7.278;2023-11-21T11:52:39;101913.00;;;8.46;100.00
5996;BME280;3026;53.612;7.278;2023-11-21T11:55:08;101924.75;;;8.47;100.00
5996;BME280;3026;53.612;7.278;2023-11-21T11:57:47;101933.63;;;8.49;100.00
5996;BME280;3026;53.612;7.278;2023-11-21T12:00:17;101929.91;;;8.50;100.00
5996;BME280;3026;53.612;7.278;2023-11-21T12:02:47;101934.47;;;8.50;100.00
5996;BME280;3026;53.612;7.278;2023-11-21T12:05:15;101933.47;;;8.51;100.00
5996;BME280;3026;53.612;7.278;2023-11-21T12:07:47;101944.22;;;8.52;100.00
5996;BME280;3026;53.612;7.278;2023-11-21T12:10:15;101942.94;;;8.56;100.00
5996;BME280;3026;53.612;7.278;2023-11-21T12:12:47;101938.00;;;8.61;100.00
5996;BME280;3026;53.612;7.278;2023-11-21T12:15:14;101949.59;;;8.63;100.00
5996;BME280;3026;53.612;7.278;2023-11-21T12:17:42;101955.03;;;8.63;100.00
5996;BME280;3026;53.612;7.278;2023-11-21T12:20:10;101960.19;;;8.66;100.00
5996;BME280;3026;53.612;7.278;2023-11-21T12:22:45;101960.41;;;8.74;100.00
5996;BME280;3026;53.612;7.278;2023-11-21T12:25:15;101964.47;;;8.80;100.00
5996;BME280;3026;53.612;7.278;2023-11-21T12:27:48;101961.91;;;8.88;100.00
5996;BME280;3026;53.612;7.278;2023-11-21T12:30:17;101962.63;;;8.90;100.00
5996;BME280;3026;53.612;7.278;2023-11-21T12:32:45;101974.25;;;8.92;100.00
5996;BME280;3026;53.612;7.278;2023-11-21T12:35:14;101968.22;;;8.89;100.00
5996;BME280;3026;53.612;7.278;2023-11-21T12:37:46;101973.06;;;8.85;100.00
5996;BME280;3026;53.612;7.278;2023-11-21T12:40:15;101984.06;;;8.84;100.00
5996;BME280;3026;53.612;7.278;2023-11-21T12:42:44;101979.38;;;8.86;100.00
5996;BME280;3026;53.612;7.278;2023-11-21T12:45:21;101979.63;;;8.83;100.00
5996;BME280;3026;53.612;7.278;2023-11-21T12:47:49;101983.34;;;8.82;100.00
5996;BME280;3026;53.612;7.278;2023-11-21T12:50:19;101986.22;;;8.80;100.00
5996;BME280;3026;53.612;7.278;2023-11-21T12:52:50;101985.47;;;8.78;100.00
5996;BME280;3026;53.612;7.278;2023-11-21T12:55:21;101989.59;;;8.72;100.00
5996;BME280;3026;53.612;7.278;2023-11-21T12:57:50;101990.72;;;8.70;100.00
5996;BME280;3026;53.612;7.278;2023-11-21T13:00:28;101993.81;;;8.65;100.00
5996;BME280;3026;53.612;7.278;2023-11-21T13:02:56;101996.66;;;8.64;100.00
5996;BME280;3026;53.612;7.278;2023-11-21T13:05:26;102002.97;;;8.64;100.00
5996;BME280;3026;53.612;7.278;2023-11-21T13:07:53;101996.81;;;8.62;100.00
5996;BME280;3026;53.612;7.278;2023-11-21T13:10:24;102001.25;;;8.63;100.00
5996;BME280;3026;53.612;7.278;2023-11-21T13:12:53;102012.13;;;8.63;100.00
5996;BME280;3026;53.612;7.278;2023-11-21T13:15:22;102012.13;;;8.63;100.00